createdAt,value
2022-09-30T00:01:25.933Z,7.72
2022-09-30T00:03:54.271Z,8.50
2022-09-30T00:06:21.647Z,8.65
2022-09-30T00:08:48.801Z,8.38
2022-09-30T00:11:19.884Z,8.40
2022-09-30T00:13:48.965Z,8.18
2022-09-30T00:16:17.062Z,8.18
2022-09-30T00:18:44.918Z,7.38
2022-09-30T00:21:15.778Z,7.95
2022-09-30T00:23:44.255Z,8.45
2022-09-30T00:26:14.909Z,8.63
2022-09-30T00:28:43.033Z,7.38
2022-09-30T00:31:13.984Z,8.45
2022-09-30T00:33:41.908Z,8.13
2022-09-30T00:36:10.102Z,8.25
2022-09-30T00:38:37.254Z,7.95
2022-09-30T00:41:04.885Z,8.27
2022-09-30T00:43:53.866Z,8.93
2022-09-30T00:46:44.703Z,7.80
2022-09-30T00:49:20.126Z,8.25
2022-09-30T00:51:54.204Z,8.48
2022-09-30T00:54:26.301Z,7.93
2022-09-30T00:56:58.308Z,8.90
2022-09-30T00:59:31.997Z,8.35
2022-09-30T01:02:00.106Z,9.60
2022-09-30T01:04:31.061Z,8.20
2022-09-30T01:07:03.150Z,8.75
2022-09-30T01:09:33.682Z,8.43
2022-09-30T01:12:05.037Z,9.05
2022-09-30T01:14:32.292Z,8.05
2022-09-30T01:17:16.848Z,8.15
2022-09-30T01:20:24.154Z,7.75
2022-09-30T01:23:23.623Z,7.95
2022-09-30T01:26:10.629Z,8.35
2022-09-30T01:29:13.431Z,9.30
2022-09-30T01:31:49.521Z,9.60
2022-09-30T01:34:22.610Z,9.55
2022-09-30T01:37:16.301Z,9.32
2022-09-30T01:40:04.360Z,9.27
2022-09-30T01:42:38.226Z,10.30
2022-09-30T01:45:05.429Z,9.82
2022-09-30T01:48:02.854Z,9.30
2022-09-30T01:50:52.569Z,10.23
2022-09-30T01:53:24.158Z,10.60
2022-09-30T01:55:56.155Z,9.63
2022-09-30T01:58:42.301Z,10.73
2022-09-30T02:01:17.704Z,10.60
2022-09-30T02:03:53.020Z,11.25
2022-09-30T02:06:25.718Z,11.57
2022-09-30T02:09:00.714Z,11.93
2022-09-30T02:11:32.901Z,12.82
2022-09-30T02:14:11.463Z,13.40
2022-09-30T02:16:43.625Z,12.93
2022-09-30T02:19:12.853Z,13.63
2022-09-30T02:21:43.582Z,13.55
2022-09-30T02:24:15.348Z,12.98
2022-09-30T02:26:46.404Z,13.32
2022-09-30T02:29:19.720Z,14.23
2022-09-30T02:31:51.026Z,13.02
2022-09-30T02:34:26.275Z,13.40
2022-09-30T02:37:09.521Z,13.90
2022-09-30T02:39:51.485Z,13.48
2022-09-30T02:42:24.348Z,13.95
2022-09-30T02:44:53.170Z,14.63
2022-09-30T02:47:31.364Z,13.52
2022-09-30T02:50:03.371Z,14.10
2022-09-30T02:53:06.245Z,12.30
2022-09-30T02:55:44.309Z,13.52
2022-09-30T02:58:14.036Z,12.70
2022-09-30T03:00:41.214Z,12.70
2022-09-30T03:03:16.614Z,12.27
2022-09-30T03:05:44.889Z,11.80
2022-09-30T03:08:12.326Z,12.25
2022-09-30T03:10:40.076Z,12.77
2022-09-30T03:13:08.056Z,12.80
2022-09-30T03:15:46.268Z,12.25
2022-09-30T03:18:53.120Z,12.93
2022-09-30T03:21:43.476Z,12.70
2022-09-30T03:24:51.289Z,13.98
2022-09-30T03:27:41.067Z,13.15
2022-09-30T03:30:13.828Z,12.20
2022-09-30T03:32:52.476Z,13.73
2022-09-30T03:35:47.660Z,12.48
2022-09-30T03:38:43.258Z,12.43
2022-09-30T03:41:28.986Z,13.02
2022-09-30T03:44:02.824Z,12.10
2022-09-30T03:46:38.244Z,12.05
2022-09-30T03:49:11.003Z,13.02
2022-09-30T03:51:39.543Z,12.82
2022-09-30T03:54:12.043Z,12.80
2022-09-30T03:56:43.375Z,12.68
2022-09-30T03:59:13.429Z,14.20
2022-09-30T04:01:40.692Z,12.60
2022-09-30T04:04:07.857Z,11.88
2022-09-30T04:06:35.062Z,12.32
2022-09-30T04:09:02.134Z,12.82
2022-09-30T04:11:29.348Z,11.65
2022-09-30T04:13:56.671Z,14.30
2022-09-30T04:16:24.716Z,12.43
2022-09-30T04:18:51.843Z,12.63
2022-09-30T04:21:18.863Z,11.88
2022-09-30T04:23:46.679Z,12.40
2022-09-30T04:26:15.616Z,14.00
2022-09-30T04:28:43.143Z,14.15
2022-09-30T04:31:12.213Z,15.18
2022-09-30T04:33:40.232Z,13.20
2022-09-30T04:36:07.727Z,15.35
2022-09-30T04:38:34.789Z,13.18
2022-09-30T04:41:04.355Z,14.00
2022-09-30T04:43:32.429Z,13.65
2022-09-30T04:45:59.804Z,13.63
2022-09-30T04:48:32.382Z,12.90
2022-09-30T04:51:00.695Z,14.00
2022-09-30T04:53:28.290Z,12.98
2022-09-30T04:56:01.237Z,13.45
2022-09-30T04:58:32.228Z,12.73
2022-09-30T05:01:05.322Z,12.60
2022-09-30T05:03:32.697Z,13.23
2022-09-30T05:05:59.841Z,13.43
2022-09-30T05:08:26.986Z,14.13
2022-09-30T05:10:55.370Z,13.10
2022-09-30T05:13:22.548Z,12.93
2022-09-30T05:15:50.261Z,12.63
2022-09-30T05:18:18.454Z,12.93
2022-09-30T05:20:45.506Z,14.00
2022-09-30T05:23:12.580Z,14.77
2022-09-30T05:25:39.637Z,14.15
2022-09-30T05:28:06.812Z,14.70
2022-09-30T05:30:34.054Z,13.27
2022-09-30T05:33:01.191Z,13.38
2022-09-30T05:35:28.984Z,12.95
2022-09-30T05:37:56.280Z,13.48
2022-09-30T05:40:23.315Z,15.10
2022-09-30T05:42:50.406Z,14.02
2022-09-30T05:45:17.571Z,12.13
2022-09-30T05:47:50.744Z,11.15
2022-09-30T05:50:17.946Z,10.43
2022-09-30T05:52:45.063Z,10.40
2022-09-30T05:55:12.205Z,10.60
2022-09-30T05:57:39.524Z,10.70
2022-09-30T06:00:07.557Z,11.30
2022-09-30T06:02:38.777Z,13.10
2022-09-30T06:05:07.091Z,12.27
2022-09-30T06:07:35.116Z,13.20
2022-09-30T06:10:03.526Z,12.18
2022-09-30T06:12:30.802Z,10.80
2022-09-30T06:14:57.826Z,9.88
2022-09-30T06:17:24.954Z,10.18
2022-09-30T06:19:51.999Z,9.52
2022-09-30T06:22:19.121Z,9.95
2022-09-30T06:24:46.449Z,9.98
2022-09-30T06:27:13.564Z,8.88
2022-09-30T06:29:40.581Z,11.52
2022-09-30T06:32:07.937Z,11.48
2022-09-30T06:34:34.979Z,11.10
2022-09-30T06:37:02.045Z,10.63
2022-09-30T06:39:29.168Z,11.35
2022-09-30T06:41:56.433Z,11.02
2022-09-30T06:44:25.412Z,10.13
2022-09-30T06:46:54.409Z,9.57
2022-09-30T06:49:22.235Z,10.65
2022-09-30T06:51:51.323Z,9.25
2022-09-30T06:54:20.704Z,8.13
2022-09-30T06:56:48.894Z,8.93
2022-09-30T06:59:17.229Z,8.43
2022-09-30T07:01:45.317Z,8.43
2022-09-30T07:04:12.771Z,8.18
2022-09-30T07:06:40.055Z,8.48
2022-09-30T07:09:08.212Z,7.80
2022-09-30T07:11:37.327Z,8.85
2022-09-30T07:14:06.263Z,7.22
2022-09-30T07:16:34.466Z,7.57
2022-09-30T07:19:02.242Z,6.95
2022-09-30T07:21:30.338Z,6.22
2022-09-30T07:23:58.981Z,4.68
2022-09-30T07:26:27.380Z,4.40
2022-09-30T07:28:54.728Z,4.03
2022-09-30T07:31:34.989Z,4.10
2022-09-30T07:34:07.274Z,3.15
2022-09-30T07:36:37.213Z,3.78
2022-09-30T07:39:07.272Z,4.40
2022-09-30T07:41:37.854Z,4.10
2022-09-30T07:44:06.556Z,3.90
2022-09-30T07:46:36.305Z,4.45
2022-09-30T07:49:06.410Z,4.32
2022-09-30T07:51:37.917Z,3.80
2022-09-30T07:54:09.168Z,3.70
2022-09-30T07:56:58.168Z,4.40
2022-09-30T07:59:27.474Z,4.40
2022-09-30T08:01:54.994Z,4.70
2022-09-30T08:04:23.622Z,4.70
2022-09-30T08:06:55.215Z,5.30
2022-09-30T08:09:24.612Z,5.03
2022-09-30T08:11:51.978Z,4.40
2022-09-30T08:14:22.250Z,4.50
2022-09-30T08:16:49.630Z,4.85
2022-09-30T08:19:19.631Z,5.47
2022-09-30T08:21:47.220Z,5.35
2022-09-30T08:24:15.372Z,5.97
2022-09-30T08:26:42.948Z,5.82
2022-09-30T08:29:16.962Z,5.32
2022-09-30T08:31:48.604Z,6.03
2022-09-30T08:34:15.768Z,5.03
2022-09-30T08:36:42.930Z,5.18
2022-09-30T08:39:11.025Z,5.18
2022-09-30T08:41:39.226Z,5.40
2022-09-30T08:44:33.571Z,5.15
2022-09-30T08:47:36.561Z,5.28
2022-09-30T08:50:20.774Z,5.50
2022-09-30T08:52:53.893Z,5.50
2022-09-30T08:55:43.409Z,4.82
2022-09-30T08:58:35.740Z,5.82
2022-09-30T09:01:07.206Z,5.63
2022-09-30T09:03:34.440Z,6.20
2022-09-30T09:06:10.117Z,5.88
2022-09-30T09:08:58.095Z,5.28
2022-09-30T09:11:27.435Z,5.60
2022-09-30T09:14:04.546Z,5.32
2022-09-30T09:16:42.620Z,4.80
2022-09-30T09:19:14.643Z,5.40
2022-09-30T09:21:49.028Z,5.53
2022-09-30T09:26:46.851Z,4.55
2022-09-30T09:29:22.867Z,4.65
2022-09-30T09:31:50.070Z,4.72
2022-09-30T09:34:17.264Z,5.03
2022-09-30T09:36:46.391Z,5.60
2022-09-30T09:39:29.066Z,5.70
2022-09-30T09:41:59.532Z,4.68
2022-09-30T09:44:52.171Z,4.63
2022-09-30T09:47:20.800Z,4.53
2022-09-30T09:49:57.896Z,4.20
2022-09-30T09:52:42.876Z,3.60
2022-09-30T09:57:40.200Z,3.20
2022-09-30T10:00:28.907Z,2.90
2022-09-30T10:03:01.292Z,2.72
2022-09-30T10:05:30.197Z,2.85
2022-09-30T10:08:19.334Z,2.40
2022-09-30T10:10:48.871Z,2.50
2022-09-30T10:13:21.190Z,2.60
2022-09-30T10:15:50.721Z,2.83
2022-09-30T10:18:23.650Z,2.63
2022-09-30T10:20:54.998Z,3.35
2022-09-30T10:23:27.121Z,3.17
2022-09-30T10:26:16.504Z,3.70
2022-09-30T10:29:01.006Z,3.25
2022-09-30T10:31:34.673Z,3.45
2022-09-30T10:34:11.286Z,3.00
2022-09-30T10:36:41.531Z,2.83
2022-09-30T10:39:24.021Z,3.13
2022-09-30T10:42:00.716Z,2.95
2022-09-30T10:44:28.579Z,3.05
2022-09-30T10:47:02.681Z,2.17
2022-09-30T10:49:33.225Z,2.53
2022-09-30T10:52:01.892Z,2.60
2022-09-30T10:54:48.621Z,1.65
2022-09-30T10:57:35.009Z,1.10
2022-09-30T11:00:09.020Z,1.30
2022-09-30T11:02:36.114Z,1.17
2022-09-30T11:05:08.150Z,1.48
2022-09-30T11:07:50.535Z,1.35
2022-09-30T11:10:43.505Z,1.88
2022-09-30T11:13:31.610Z,1.30
2022-09-30T11:16:25.039Z,1.40
2022-09-30T11:19:09.480Z,1.50
2022-09-30T11:22:01.740Z,1.30
2022-09-30T11:24:36.617Z,1.25
2022-09-30T11:27:20.774Z,1.35
2022-09-30T11:30:19.564Z,1.30
2022-09-30T11:32:53.108Z,1.30
2022-09-30T11:35:43.600Z,1.17
2022-09-30T11:38:19.129Z,1.10
2022-09-30T11:40:54.217Z,0.90
2022-09-30T11:43:41.112Z,1.58
2022-09-30T11:46:35.540Z,1.60
2022-09-30T11:49:22.468Z,1.25
2022-09-30T11:51:58.135Z,1.52
2022-09-30T11:54:52.792Z,1.77
2022-09-30T11:57:24.939Z,1.98
2022-09-30T11:59:55.921Z,1.95
2022-09-30T12:02:24.013Z,2.25
2022-09-30T12:04:56.602Z,1.67
2022-09-30T12:07:35.523Z,2.20
2022-09-30T12:10:14.341Z,1.48
2022-09-30T12:12:42.345Z,1.70
2022-09-30T12:15:17.403Z,1.75
2022-09-30T12:17:49.910Z,1.80
2022-09-30T12:20:26.167Z,1.70
2022-09-30T12:23:13.994Z,1.92
2022-09-30T12:25:48.042Z,1.70
2022-09-30T12:28:43.616Z,1.80
2022-09-30T12:31:30.734Z,1.67
2022-09-30T12:34:23.398Z,1.67
2022-09-30T12:36:53.751Z,1.55
2022-09-30T12:39:48.980Z,1.58
2022-09-30T12:42:26.809Z,2.00
2022-09-30T12:45:25.693Z,1.60
2022-09-30T12:47:57.484Z,1.92
2022-09-30T12:50:30.073Z,1.60
2022-09-30T12:53:00.096Z,1.77
2022-09-30T12:55:37.494Z,1.73
2022-09-30T12:58:05.679Z,1.48
2022-09-30T13:00:34.995Z,1.70
2022-09-30T13:03:17.641Z,1.77
2022-09-30T13:05:47.905Z,1.70
2022-09-30T13:08:16.006Z,1.60
2022-09-30T13:10:47.264Z,1.67
2022-09-30T13:13:33.977Z,1.55
2022-09-30T13:16:03.775Z,1.58
2022-09-30T13:18:30.875Z,1.48
2022-09-30T13:21:18.841Z,1.85
2022-09-30T13:23:48.010Z,1.60
2022-09-30T13:26:34.140Z,1.20
2022-09-30T13:29:01.313Z,1.23
2022-09-30T13:31:30.505Z,1.27
2022-09-30T13:34:02.081Z,1.88
2022-09-30T13:36:30.704Z,1.30
2022-09-30T13:39:23.322Z,1.40
2022-09-30T13:42:03.382Z,1.88
2022-09-30T13:44:57.261Z,1.35
2022-09-30T13:47:30.682Z,1.50
2022-09-30T13:50:13.776Z,1.33
2022-09-30T13:52:42.725Z,1.48
2022-09-30T13:55:21.559Z,1.70
2022-09-30T13:58:08.501Z,1.60
2022-09-30T14:01:13.700Z,1.60
2022-09-30T14:04:05.954Z,1.50
2022-09-30T14:07:00.461Z,1.60
2022-09-30T14:09:51.909Z,1.77
2022-09-30T14:12:44.311Z,1.67
2022-09-30T14:15:32.883Z,1.70
2022-09-30T14:18:05.598Z,1.65
2022-09-30T14:20:33.986Z,1.33
2022-09-30T14:23:01.207Z,2.10
2022-09-30T14:25:35.915Z,1.63
2022-09-30T14:28:09.042Z,1.52
2022-09-30T14:30:41.766Z,1.63
2022-09-30T14:33:16.483Z,1.60
2022-09-30T14:35:43.537Z,1.60
2022-09-30T14:38:20.298Z,1.55
2022-09-30T14:40:53.073Z,1.35
2022-09-30T14:43:24.341Z,1.50
2022-09-30T14:45:55.589Z,1.48
2022-09-30T14:48:26.424Z,1.20
2022-09-30T14:51:01.311Z,1.42
2022-09-30T14:53:31.482Z,1.42
2022-09-30T14:55:59.440Z,1.55
2022-09-30T14:58:28.842Z,1.60
2022-09-30T15:01:05.052Z,1.40
2022-09-30T15:03:36.551Z,1.30
2022-09-30T15:06:05.368Z,1.40
2022-09-30T15:08:32.824Z,1.63
2022-09-30T15:10:59.933Z,1.50
2022-09-30T15:13:31.219Z,1.42
2022-09-30T15:15:59.369Z,2.08
2022-09-30T15:18:30.595Z,1.83
2022-09-30T15:21:05.551Z,1.77
2022-09-30T15:23:35.541Z,1.65
2022-09-30T15:26:03.137Z,1.90
2022-09-30T15:28:30.840Z,1.75
2022-09-30T15:30:59.179Z,2.05
2022-09-30T15:33:29.045Z,1.88
2022-09-30T15:36:07.208Z,1.45
2022-09-30T15:38:36.881Z,1.90
2022-09-30T15:41:10.914Z,1.48
2022-09-30T15:43:50.856Z,1.75
2022-09-30T15:46:19.244Z,1.77
2022-09-30T15:48:47.206Z,1.85
2022-09-30T15:51:37.640Z,1.60
2022-09-30T15:54:28.291Z,1.90
2022-09-30T15:56:56.718Z,1.80
2022-09-30T15:59:43.841Z,2.22
2022-09-30T16:02:11.579Z,1.77
2022-09-30T16:04:39.067Z,1.70
2022-09-30T16:07:09.131Z,1.60
2022-09-30T16:09:39.236Z,2.00
2022-09-30T16:12:19.445Z,1.85
2022-09-30T16:14:52.471Z,1.90
2022-09-30T16:17:29.329Z,1.90
2022-09-30T16:19:59.392Z,2.00
2022-09-30T16:22:34.926Z,1.95
2022-09-30T16:25:28.301Z,2.33
2022-09-30T16:28:16.395Z,2.10
2022-09-30T16:30:49.849Z,1.98
2022-09-30T16:33:17.439Z,2.00
2022-09-30T16:35:45.411Z,2.30
2022-09-30T16:38:16.198Z,1.85
2022-09-30T16:40:44.880Z,2.50
2022-09-30T16:43:12.054Z,2.65
2022-09-30T16:45:40.371Z,2.13
2022-09-30T16:48:16.911Z,2.67
2022-09-30T16:50:49.889Z,2.53
2022-09-30T16:53:17.233Z,2.55
2022-09-30T16:55:45.005Z,2.60
2022-09-30T16:58:13.221Z,2.60
2022-09-30T17:00:45.405Z,2.60
2022-09-30T17:03:15.019Z,3.15
2022-09-30T17:05:44.550Z,2.67
2022-09-30T17:08:14.189Z,2.75
2022-09-30T17:10:43.381Z,3.35
2022-09-30T17:13:10.889Z,4.20
2022-09-30T17:15:37.946Z,4.35
2022-09-30T17:18:08.135Z,3.75
2022-09-30T17:20:36.481Z,4.15
2022-09-30T17:23:07.336Z,3.95
2022-09-30T17:25:35.304Z,3.65
2022-09-30T17:28:02.470Z,3.72
2022-09-30T17:30:29.737Z,4.30
2022-09-30T17:32:56.696Z,3.70
2022-09-30T17:35:23.888Z,3.97
2022-09-30T17:37:50.875Z,4.00
2022-09-30T17:40:37.830Z,3.97
2022-09-30T17:43:08.314Z,4.38
2022-09-30T17:45:36.476Z,4.22
2022-09-30T17:48:05.148Z,4.13
2022-09-30T17:50:32.147Z,3.40
2022-09-30T17:52:59.200Z,3.90
2022-09-30T17:55:27.891Z,3.78
2022-09-30T17:57:55.924Z,4.15
2022-09-30T18:00:23.881Z,4.75
2022-09-30T18:02:51.025Z,4.75
2022-09-30T18:05:18.043Z,4.28
2022-09-30T18:07:46.409Z,4.68
2022-09-30T18:10:13.562Z,4.32
2022-09-30T18:12:40.904Z,4.57
2022-09-30T18:15:08.720Z,4.70
2022-09-30T18:17:36.134Z,4.43
2022-09-30T18:20:03.337Z,4.10
2022-09-30T18:22:30.404Z,4.65
2022-09-30T18:25:17.336Z,4.13
2022-09-30T18:27:44.552Z,4.68
2022-09-30T18:30:12.204Z,4.10
2022-09-30T18:32:39.887Z,4.20
2022-09-30T18:35:12.176Z,4.20
2022-09-30T18:37:42.345Z,4.90
2022-09-30T18:40:11.227Z,5.30
2022-09-30T18:42:38.793Z,5.25
2022-09-30T18:45:08.493Z,5.30
2022-09-30T18:47:37.040Z,4.57
2022-09-30T18:50:07.454Z,5.20
2022-09-30T18:52:38.033Z,4.68
2022-09-30T18:55:11.842Z,5.07
2022-09-30T18:57:39.169Z,5.32
2022-09-30T19:00:09.851Z,5.35
2022-09-30T19:02:40.257Z,4.93
2022-09-30T19:05:08.935Z,4.82
2022-09-30T19:07:38.669Z,5.43
2022-09-30T19:10:07.923Z,4.97
2022-09-30T19:12:36.680Z,4.70
2022-09-30T19:15:08.162Z,4.93
2022-09-30T19:17:40.192Z,4.10
2022-09-30T19:20:08.462Z,4.90
2022-09-30T19:22:37.323Z,5.00
2022-09-30T19:25:06.656Z,4.30
2022-09-30T19:27:37.832Z,5.25
2022-09-30T19:30:07.240Z,4.75
2022-09-30T19:32:41.297Z,4.78
2022-09-30T19:35:13.591Z,4.38
2022-09-30T19:37:56.713Z,4.80
2022-09-30T19:40:27.258Z,4.88
2022-09-30T19:42:54.504Z,4.50
2022-09-30T19:45:25.709Z,4.15
2022-09-30T19:47:54.371Z,4.00
2022-09-30T19:50:21.708Z,4.03
2022-09-30T19:52:56.783Z,4.50
2022-09-30T19:55:26.651Z,4.10
2022-09-30T19:57:55.917Z,4.57
2022-09-30T20:00:23.388Z,4.30
2022-09-30T20:02:50.733Z,4.93
2022-09-30T20:05:19.066Z,4.45
2022-09-30T20:07:46.098Z,4.60
2022-09-30T20:10:14.271Z,4.57
2022-09-30T20:12:42.130Z,4.57
2022-09-30T20:15:30.526Z,3.88
2022-09-30T20:17:57.663Z,3.97
2022-09-30T20:20:44.704Z,4.63
2022-09-30T20:23:14.020Z,3.97
2022-09-30T20:25:45.549Z,4.97
2022-09-30T20:28:13.133Z,3.90
2022-09-30T20:30:51.762Z,4.70
2022-09-30T20:33:24.684Z,4.97
2022-09-30T20:35:52.009Z,5.45
2022-09-30T20:38:25.073Z,4.63
2022-09-30T20:40:55.639Z,5.25
2022-09-30T20:43:22.760Z,4.97
2022-09-30T20:45:57.367Z,5.32
2022-09-30T20:48:24.715Z,5.00
2022-09-30T20:50:51.783Z,5.22
2022-09-30T20:53:19.580Z,5.32
2022-09-30T20:55:46.572Z,5.35
2022-09-30T20:58:14.325Z,5.80
2022-09-30T21:00:42.607Z,5.65
2022-09-30T21:03:13.639Z,5.05
2022-09-30T21:05:41.035Z,6.15
2022-09-30T21:08:08.509Z,5.18
2022-09-30T21:10:37.550Z,5.60
2022-09-30T21:13:08.731Z,5.22
2022-09-30T21:15:36.491Z,5.70
2022-09-30T21:18:03.724Z,5.72
2022-09-30T21:20:30.828Z,6.15
2022-09-30T21:22:58.236Z,5.80
2022-09-30T21:25:25.446Z,5.60
2022-09-30T21:27:52.999Z,4.90
2022-09-30T21:30:20.295Z,5.05
2022-09-30T21:32:50.040Z,4.97
2022-09-30T21:35:17.263Z,5.68
2022-09-30T21:37:44.405Z,5.47
2022-09-30T21:40:12.392Z,5.75
2022-09-30T21:42:39.429Z,5.65
2022-09-30T21:45:08.378Z,5.05
2022-09-30T21:47:35.753Z,6.10
2022-09-30T21:50:08.298Z,5.53
2022-09-30T21:52:40.129Z,6.80
2022-09-30T21:55:07.471Z,6.03
2022-09-30T21:57:34.522Z,4.95
2022-09-30T22:00:02.420Z,6.13
2022-09-30T22:02:29.520Z,5.50
2022-09-30T22:04:56.616Z,6.47
2022-09-30T22:07:25.179Z,6.25
2022-09-30T22:09:52.214Z,6.50
2022-09-30T22:12:19.948Z,6.53
2022-09-30T22:14:46.989Z,5.65
2022-09-30T22:17:15.743Z,5.97
2022-09-30T22:19:42.807Z,8.05
2022-09-30T22:22:10.724Z,7.15
2022-09-30T22:24:38.167Z,6.65
2022-09-30T22:27:07.607Z,6.43
2022-09-30T22:29:35.331Z,6.18
2022-09-30T22:32:02.514Z,6.63
2022-09-30T22:34:49.673Z,6.40
2022-09-30T22:37:36.659Z,5.53
2022-09-30T22:40:04.063Z,6.50
2022-09-30T22:42:31.164Z,6.63
2022-09-30T22:44:58.148Z,5.70
2022-09-30T22:47:25.285Z,5.95
2022-09-30T22:49:52.310Z,5.63
2022-09-30T22:52:19.375Z,5.95
2022-09-30T22:54:46.400Z,6.47
2022-09-30T22:57:13.642Z,6.00
2022-09-30T22:59:41.861Z,5.95
2022-09-30T23:02:09.052Z,6.40
2022-09-30T23:04:36.317Z,6.75
2022-09-30T23:07:03.880Z,7.43
2022-09-30T23:09:31.296Z,7.13
2022-09-30T23:11:58.297Z,6.55
2022-09-30T23:14:25.513Z,7.13
2022-09-30T23:16:52.716Z,6.57
2022-09-30T23:19:20.042Z,6.35
2022-09-30T23:21:47.222Z,7.18
2022-09-30T23:24:14.511Z,7.10
2022-09-30T23:26:41.960Z,7.38
2022-09-30T23:29:12.284Z,7.32
2022-09-30T23:31:40.024Z,7.15
2022-09-30T23:34:07.529Z,7.18
2022-09-30T23:36:37.261Z,7.55
2022-09-30T23:39:09.281Z,6.72
2022-09-30T23:41:36.726Z,7.57
2022-09-30T23:44:04.530Z,7.38
2022-09-30T23:46:32.016Z,8.68
2022-09-30T23:48:59.150Z,7.40
2022-09-30T23:51:26.191Z,7.45
2022-09-30T23:53:53.340Z,8.63
2022-09-30T23:56:20.904Z,8.68
2022-09-30T23:58:48.496Z,8.07
